EKBI Airport Information

Runway Information
Runway 09 Length 10172 ft width 148 ft
Elevation 215 ft Threshold 492 ft Heading 87
Runway 27 Length 10172 ft Width 148 ft
Elevation 244 ft Threshold 492 ft Heading 267
Airport Frequencies
Type APP Name APP Frequency 127.575 MHZ
Type ATIS Name ATIS Frequency 118.775 MHZ
Type MISC Name CARGO HAND Frequency 122.075 MHZ
Type MISC Name HANDLING Frequency 130.85 MHZ
Type OPS Name ARPT OFFIC Frequency 131.5 MHZ
Type TWR Name TWR Frequency 119 MHZ
Airport Navaids
Type NDB Name Billund Frequency 341 KHZ
Airport Weather Information & NOTAM
ADDS - METARS form results

(1655 UTC 18 November 2018)
Data provider http://aviationweather.gov/metar/data/
 
METAR text: EKBI 181650Z AUTO 05011KT 9999NDV BKN018/// 05/04 Q1034
Conditions at: EKBI (BILLUND AIRPORT , DK) observed 1650 UTC 18 November 2018
Temperature: 5.0°C (41°F)
Dewpoint: 4.0°C (39°F) [RH = 93%]
Pressure (altimeter): 30.53 inches Hg (1034.0 mb)
Winds: from the NE (50 degrees) at 13 MPH (11 knots; 5.7 m/s)
Visibility: missing
Ceiling: 1800 feet AGL
Clouds: broken clouds at 1800 feet AGL
Weather: no significant weather observed at this time

METAR text: EKBI 181620Z AUTO 05007KT 9999NDV OVC017/// 06/04 Q1035
Conditions at: EKBI (BILLUND AIRPORT , DK) observed 1620 UTC 18 November 2018
Temperature: 6.0°C (43°F)
Dewpoint: 4.0°C (39°F) [RH = 87%]
Pressure (altimeter): 30.56 inches Hg (1035.0 mb)
Winds: from the NE (50 degrees) at 8 MPH (7 knots; 3.6 m/s)
Visibility: missing
Ceiling: 1700 feet AGL
Clouds: overcast cloud deck at 1700 feet AGL
Weather: no significant weather observed at this time

Forecast for: EKBI (BILLUND AIRPORT , DK)
Text: TAF EKBI 181105Z 1812/1912 03008KT 8000 BKN015
Forecast period: 1200 UTC 18 November 2018 to 1200 UTC 19 November 2018
Forecast type: FROM: standard forecast or significant change
Winds: from the NNE (30 degrees) at 9 MPH (8 knots; 4.1 m/s)
Visibility: 5 miles (8 km)
Ceiling: 1500 feet AGL
Clouds: broken clouds at 1500 feet AGL
Weather: no significant weather forecast for this period
Text: TEMPO 1812/1820 4000 BR BKN012
Forecast period: 1200 to 2000 UTC 18 November 2018
Forecast type: TEMPORARY: The following changes expected for less than half the time period
Visibility: 2.49 miles (4.01 km)
Ceiling: 1200 feet AGL
Clouds: broken clouds at 1200 feet AGL
Weather: BR  (mist)